sensor_id;sensor_type;location;lat;lon;timestamp;P1;durP1;ratioP1;P2;durP2;ratioP2
62523;SDS011;53689;56.878;60.672;2023-07-24T00:00:32;7.07;;;3.85;;
62523;SDS011;53689;56.878;60.672;2023-07-24T00:02:59;5.43;;;3.25;;
62523;SDS011;53689;56.878;60.672;2023-07-24T00:05:29;9.27;;;3.88;;
62523;SDS011;53689;56.878;60.672;2023-07-24T00:07:56;7.05;;;3.67;;
62523;SDS011;53689;56.878;60.672;2023-07-24T00:10:24;7.00;;;4.03;;
62523;SDS011;53689;56.878;60.672;2023-07-24T00:12:52;9.52;;;3.88;;
62523;SDS011;53689;56.878;60.672;2023-07-24T00:15:19;6.32;;;3.63;;
62523;SDS011;53689;56.878;60.672;2023-07-24T00:17:47;5.93;;;3.70;;
62523;SDS011;53689;56.878;60.672;2023-07-24T00:20:15;7.20;;;4.15;;
62523;SDS011;53689;56.878;60.672;2023-07-24T00:22:44;6.43;;;4.03;;
62523;SDS011;53689;56.878;60.672;2023-07-24T00:25:11;5.82;;;3.45;;
62523;SDS011;53689;56.878;60.672;2023-07-24T00:27:40;6.97;;;3.75;;
62523;SDS011;53689;56.878;60.672;2023-07-24T00:30:08;9.02;;;3.88;;
62523;SDS011;53689;56.878;60.672;2023-07-24T00:32:36;6.78;;;3.42;;
62523;SDS011;53689;56.878;60.672;2023-07-24T00:35:04;9.43;;;4.10;;
62523;SDS011;53689;56.878;60.672;2023-07-24T00:37:34;6.38;;;4.10;;
62523;SDS011;53689;56.878;60.672;2023-07-24T00:40:03;6.53;;;3.70;;
62523;SDS011;53689;56.878;60.672;2023-07-24T00:42:31;6.07;;;3.97;;
62523;SDS011;53689;56.878;60.672;2023-07-24T00:44:59;7.45;;;3.92;;
62523;SDS011;53689;56.878;60.672;2023-07-24T00:47:31;6.30;;;3.50;;
62523;SDS011;53689;56.878;60.672;2023-07-24T00:49:59;5.57;;;3.47;;
62523;SDS011;53689;56.878;60.672;2023-07-24T00:52:26;5.47;;;3.55;;
62523;SDS011;53689;56.878;60.672;2023-07-24T00:54:54;6.00;;;4.03;;
62523;SDS011;53689;56.878;60.672;2023-07-24T00:57:23;5.00;;;3.50;;
62523;SDS011;53689;56.878;60.672;2023-07-24T00:59:51;6.63;;;3.78;;
62523;SDS011;53689;56.878;60.672;2023-07-24T01:02:19;7.13;;;3.75;;
62523;SDS011;53689;56.878;60.672;2023-07-24T01:04:47;6.22;;;3.58;;
62523;SDS011;53689;56.878;60.672;2023-07-24T01:07:14;7.90;;;3.30;;
62523;SDS011;53689;56.878;60.672;2023-07-24T01:09:42;7.72;;;3.58;;
62523;SDS011;53689;56.878;60.672;2023-07-24T01:12:22;8.30;;;3.63;;
62523;SDS011;53689;56.878;60.672;2023-07-24T01:15:00;6.72;;;3.42;;
62523;SDS011;53689;56.878;60.672;2023-07-24T01:17:32;6.80;;;3.53;;
62523;SDS011;53689;56.878;60.672;2023-07-24T01:20:06;7.10;;;3.72;;
62523;SDS011;53689;56.878;60.672;2023-07-24T01:22:38;6.18;;;3.20;;
62523;SDS011;53689;56.878;60.672;2023-07-24T01:25:10;7.70;;;3.90;;
62523;SDS011;53689;56.878;60.672;2023-07-24T01:27:48;8.50;;;3.67;;
62523;SDS011;53689;56.878;60.672;2023-07-24T01:30:16;8.55;;;3.85;;
62523;SDS011;53689;56.878;60.672;2023-07-24T01:32:48;6.43;;;3.88;;
62523;SDS011;53689;56.878;60.672;2023-07-24T01:35:16;6.68;;;3.50;;
62523;SDS011;53689;56.878;60.672;2023-07-24T01:37:44;5.95;;;3.42;;
62523;SDS011;53689;56.878;60.672;2023-07-24T01:40:13;7.28;;;3.97;;
62523;SDS011;53689;56.878;60.672;2023-07-24T01:42:42;6.85;;;3.92;;
62523;SDS011;53689;56.878;60.672;2023-07-24T01:45:12;9.00;;;3.35;;
62523;SDS011;53689;56.878;60.672;2023-07-24T01:47:40;6.43;;;3.47;;
62523;SDS011;53689;56.878;60.672;2023-07-24T01:50:07;7.13;;;3.53;;
62523;SDS011;53689;56.878;60.672;2023-07-24T01:52:36;5.68;;;3.15;;
62523;SDS011;53689;56.878;60.672;2023-07-24T01:55:04;5.18;;;3.15;;
62523;SDS011;53689;56.878;60.672;2023-07-24T01:57:32;5.55;;;3.33;;
62523;SDS011;53689;56.878;60.672;2023-07-24T02:00:00;5.50;;;3.25;;
62523;SDS011;53689;56.878;60.672;2023-07-24T02:02:29;6.28;;;3.13;;
62523;SDS011;53689;56.878;60.672;2023-07-24T02:04:57;5.65;;;3.30;;
62523;SDS011;53689;56.878;60.672;2023-07-24T02:07:25;6.78;;;3.63;;
62523;SDS011;53689;56.878;60.672;2023-07-24T02:09:52;5.72;;;3.00;;
62523;SDS011;53689;56.878;60.672;2023-07-24T02:12:20;5.68;;;3.70;;
62523;SDS011;53689;56.878;60.672;2023-07-24T02:14:48;5.40;;;3.55;;
62523;SDS011;53689;56.878;60.672;2023-07-24T02:17:16;7.68;;;3.58;;
62523;SDS011;53689;56.878;60.672;2023-07-24T02:19:46;6.10;;;3.28;;
62523;SDS011;53689;56.878;60.672;2023-07-24T02:22:13;6.95;;;3.10;;
62523;SDS011;53689;56.878;60.672;2023-07-24T02:24:42;5.07;;;3.27;;
62523;SDS011;53689;56.878;60.672;2023-07-24T02:27:11;6.90;;;3.30;;
62523;SDS011;53689;56.878;60.672;2023-07-24T02:29:39;5.00;;;3.13;;
62523;SDS011;53689;56.878;60.672;2023-07-24T02:32:07;5.97;;;3.45;;
62523;SDS011;53689;56.878;60.672;2023-07-24T02:34:35;6.53;;;3.78;;
62523;SDS011;53689;56.878;60.672;2023-07-24T02:37:04;4.55;;;3.22;;
62523;SDS011;53689;56.878;60.672;2023-07-24T02:39:32;7.20;;;3.67;;
62523;SDS011;53689;56.878;60.672;2023-07-24T02:42:00;8.25;;;3.38;;
62523;SDS011;53689;56.878;60.672;2023-07-24T02:44:27;6.90;;;4.10;;
62523;SDS011;53689;56.878;60.672;2023-07-24T02:46:55;7.00;;;3.85;;
62523;SDS011;53689;56.878;60.672;2023-07-24T02:49:23;6.43;;;3.50;;
62523;SDS011;53689;56.878;60.672;2023-07-24T02:51:51;7.18;;;3.92;;
62523;SDS011;53689;56.878;60.672;2023-07-24T02:54:20;6.03;;;3.40;;
62523;SDS011;53689;56.878;60.672;2023-07-24T02:56:48;7.15;;;3.42;;
62523;SDS011;53689;56.878;60.672;2023-07-24T02:59:16;5.97;;;3.38;;
62523;SDS011;53689;56.878;60.672;2023-07-24T03:01:44;6.75;;;3.50;;
62523;SDS011;53689;56.878;60.672;2023-07-24T03:04:11;5.95;;;3.30;;
62523;SDS011;53689;56.878;60.672;2023-07-24T03:06:39;5.22;;;3.30;;
62523;SDS011;53689;56.878;60.672;2023-07-24T03:09:07;6.70;;;3.83;;
62523;SDS011;53689;56.878;60.672;2023-07-24T03:11:36;9.55;;;3.75;;
62523;SDS011;53689;56.878;60.672;2023-07-24T03:14:04;8.60;;;4.65;;
62523;SDS011;53689;56.878;60.672;2023-07-24T03:16:31;6.45;;;3.72;;
62523;SDS011;53689;56.878;60.672;2023-07-24T03:18:59;7.18;;;3.80;;
62523;SDS011;53689;56.878;60.672;2023-07-24T03:21:27;6.07;;;3.38;;
62523;SDS011;53689;56.878;60.672;2023-07-24T03:23:54;6.18;;;3.53;;
62523;SDS011;53689;56.878;60.672;2023-07-24T03:26:22;7.18;;;3.78;;
62523;SDS011;53689;56.878;60.672;2023-07-24T03:28:51;7.07;;;4.00;;
62523;SDS011;53689;56.878;60.672;2023-07-24T03:31:19;6.93;;;3.60;;
62523;SDS011;53689;56.878;60.672;2023-07-24T03:33:46;7.90;;;3.72;;
62523;SDS011;53689;56.878;60.672;2023-07-24T03:36:14;5.50;;;3.65;;
62523;SDS011;53689;56.878;60.672;2023-07-24T03:38:42;7.28;;;3.60;;
62523;SDS011;53689;56.878;60.672;2023-07-24T03:41:09;8.80;;;4.07;;
62523;SDS011;53689;56.878;60.672;2023-07-24T03:43:37;5.13;;;3.10;;
62523;SDS011;53689;56.878;60.672;2023-07-24T03:46:06;5.20;;;3.40;;
62523;SDS011;53689;56.878;60.672;2023-07-24T03:48:34;8.13;;;3.90;;
62523;SDS011;53689;56.878;60.672;2023-07-24T03:51:01;4.93;;;2.90;;
62523;SDS011;53689;56.878;60.672;2023-07-24T03:53:29;6.40;;;3.85;;
62523;SDS011;53689;56.878;60.672;2023-07-24T03:55:58;5.72;;;3.40;;
62523;SDS011;53689;56.878;60.672;2023-07-24T03:58:26;7.68;;;3.72;;
62523;SDS011;53689;56.878;60.672;2023-07-24T04:00:54;6.65;;;3.28;;
62523;SDS011;53689;56.878;60.672;2023-07-24T04:03:23;7.15;;;3.58;;
62523;SDS011;53689;56.878;60.672;2023-07-24T04:05:51;9.23;;;5.53;;
62523;SDS011;53689;56.878;60.672;2023-07-24T04:08:18;7.15;;;3.80;;
62523;SDS011;53689;56.878;60.672;2023-07-24T04:10:46;6.60;;;3.60;;
62523;SDS011;53689;56.878;60.672;2023-07-24T04:13:13;8.50;;;3.25;;
62523;SDS011;53689;56.878;60.672;2023-07-24T04:15:41;9.23;;;4.25;;
62523;SDS011;53689;56.878;60.672;2023-07-24T04:18:09;5.97;;;3.28;;
62523;SDS011;53689;56.878;60.672;2023-07-24T04:20:38;6.03;;;3.70;;
62523;SDS011;53689;56.878;60.672;2023-07-24T04:23:06;11.00;;;3.70;;
62523;SDS011;53689;56.878;60.672;2023-07-24T04:25:33;5.30;;;3.38;;
62523;SDS011;53689;56.878;60.672;2023-07-24T04:28:01;6.93;;;3.90;;
62523;SDS011;53689;56.878;60.672;2023-07-24T04:30:29;7.65;;;3.15;;
62523;SDS011;53689;56.878;60.672;2023-07-24T04:32:57;6.10;;;3.58;;
62523;SDS011;53689;56.878;60.672;2023-07-24T04:35:26;8.05;;;3.38;;
62523;SDS011;53689;56.878;60.672;2023-07-24T04:37:55;7.85;;;3.70;;
62523;SDS011;53689;56.878;60.672;2023-07-24T04:40:23;8.52;;;3.78;;
62523;SDS011;53689;56.878;60.672;2023-07-24T04:42:51;7.18;;;3.97;;
62523;SDS011;53689;56.878;60.672;2023-07-24T04:45:18;7.47;;;4.07;;
62523;SDS011;53689;56.878;60.672;2023-07-24T04:47:49;7.78;;;4.72;;
62523;SDS011;53689;56.878;60.672;2023-07-24T04:50:17;8.10;;;4.57;;
62523;SDS011;53689;56.878;60.672;2023-07-24T04:52:46;7.97;;;4.82;;
62523;SDS011;53689;56.878;60.672;2023-07-24T04:55:15;8.40;;;4.15;;
62523;SDS011;53689;56.878;60.672;2023-07-24T04:57:43;6.40;;;3.38;;
62523;SDS011;53689;56.878;60.672;2023-07-24T05:00:11;19.30;;;14.27;;
62523;SDS011;53689;56.878;60.672;2023-07-24T05:02:39;37.37;;;29.27;;
62523;SDS011;53689;56.878;60.672;2023-07-24T05:05:08;14.90;;;5.95;;
62523;SDS011;53689;56.878;60.672;2023-07-24T05:07:36;11.95;;;5.25;;
62523;SDS011;53689;56.878;60.672;2023-07-24T05:10:04;9.07;;;4.28;;
62523;SDS011;53689;56.878;60.672;2023-07-24T05:12:34;7.65;;;4.20;;
62523;SDS011;53689;56.878;60.672;2023-07-24T05:15:01;7.18;;;3.90;;
62523;SDS011;53689;56.878;60.672;2023-07-24T05:17:29;7.45;;;3.90;;
62523;SDS011;53689;56.878;60.672;2023-07-24T05:19:57;14.18;;;4.05;;
62523;SDS011;53689;56.878;60.672;2023-07-24T05:22:25;7.70;;;3.38;;
62523;SDS011;53689;56.878;60.672;2023-07-24T05:24:52;8.57;;;3.80;;
62523;SDS011;53689;56.878;60.672;2023-07-24T05:27:20;8.13;;;3.95;;
62523;SDS011;53689;56.878;60.672;2023-07-24T05:29:49;10.75;;;4.18;;
62523;SDS011;53689;56.878;60.672;2023-07-24T05:32:17;7.82;;;4.20;;
62523;SDS011;53689;56.878;60.672;2023-07-24T05:34:44;8.35;;;3.78;;
62523;SDS011;53689;56.878;60.672;2023-07-24T05:37:12;7.45;;;3.42;;
62523;SDS011;53689;56.878;60.672;2023-07-24T05:39:40;8.05;;;3.70;;
62523;SDS011;53689;56.878;60.672;2023-07-24T05:42:08;10.50;;;3.90;;
62523;SDS011;53689;56.878;60.672;2023-07-24T05:44:35;10.32;;;4.43;;
62523;SDS011;53689;56.878;60.672;2023-07-24T05:47:04;8.35;;;4.15;;
62523;SDS011;53689;56.878;60.672;2023-07-24T05:49:32;9.60;;;4.13;;
62523;SDS011;53689;56.878;60.672;2023-07-24T05:52:00;8.70;;;3.88;;
62523;SDS011;53689;56.878;60.672;2023-07-24T05:54:28;9.93;;;4.22;;
62523;SDS011;53689;56.878;60.672;2023-07-24T05:56:56;6.55;;;4.00;;
62523;SDS011;53689;56.878;60.672;2023-07-24T05:59:24;9.25;;;4.07;;
62523;SDS011;53689;56.878;60.672;2023-07-24T06:01:51;10.23;;;4.18;;
62523;SDS011;53689;56.878;60.672;2023-07-24T06:04:20;13.80;;;3.90;;
62523;SDS011;53689;56.878;60.672;2023-07-24T06:06:48;8.27;;;3.80;;
62523;SDS011;53689;56.878;60.672;2023-07-24T06:09:16;9.23;;;4.80;;
62523;SDS011;53689;56.878;60.672;2023-07-24T06:11:47;8.88;;;3.92;;
62523;SDS011;53689;56.878;60.672;2023-07-24T06:14:15;8.82;;;4.07;;
62523;SDS011;53689;56.878;60.672;2023-07-24T06:16:43;7.90;;;3.38;;
62523;SDS011;53689;56.878;60.672;2023-07-24T06:19:10;8.38;;;3.38;;
62523;SDS011;53689;56.878;60.672;2023-07-24T06:21:39;9.45;;;3.33;;
62523;SDS011;53689;56.878;60.672;2023-07-24T06:24:07;11.05;;;4.85;;
62523;SDS011;53689;56.878;60.672;2023-07-24T06:26:35;9.70;;;3.88;;
62523;SDS011;53689;56.878;60.672;2023-07-24T06:29:02;11.50;;;4.18;;
62523;SDS011;53689;56.878;60.672;2023-07-24T06:31:30;14.30;;;4.57;;
62523;SDS011;53689;56.878;60.672;2023-07-24T06:33:58;12.98;;;4.45;;
62523;SDS011;53689;56.878;60.672;2023-07-24T06:36:25;6.43;;;2.97;;
62523;SDS011;53689;56.878;60.672;2023-07-24T06:38:55;12.20;;;4.15;;
62523;SDS011;53689;56.878;60.672;2023-07-24T06:41:23;11.20;;;3.60;;
62523;SDS011;53689;56.878;60.672;2023-07-24T06:43:51;15.37;;;4.67;;
62523;SDS011;53689;56.878;60.672;2023-07-24T06:46:19;12.23;;;4.03;;
62523;SDS011;53689;56.878;60.672;2023-07-24T06:48:47;14.63;;;4.25;;
62523;SDS011;53689;56.878;60.672;2023-07-24T06:51:14;12.07;;;3.92;;
62523;SDS011;53689;56.878;60.672;2023-07-24T06:53:42;13.77;;;4.88;;
62523;SDS011;53689;56.878;60.672;2023-07-24T06:56:11;10.02;;;3.78;;
62523;SDS011;53689;56.878;60.672;2023-07-24T06:58:38;12.95;;;4.00;;
62523;SDS011;53689;56.878;60.672;2023-07-24T07:01:06;11.68;;;3.70;;
62523;SDS011;53689;56.878;60.672;2023-07-24T07:03:34;13.05;;;3.75;;
62523;SDS011;53689;56.878;60.672;2023-07-24T07:06:02;14.70;;;4.10;;
62523;SDS011;53689;56.878;60.672;2023-07-24T07:08:30;15.25;;;4.28;;
62523;SDS011;53689;56.878;60.672;2023-07-24T07:10:58;11.73;;;3.90;;
62523;SDS011;53689;56.878;60.672;2023-07-24T07:13:28;11.57;;;4.70;;
62523;SDS011;53689;56.878;60.672;2023-07-24T07:15:55;12.10;;;4.10;;
62523;SDS011;53689;56.878;60.672;2023-07-24T07:18:23;15.68;;;4.15;;
62523;SDS011;53689;56.878;60.672;2023-07-24T07:20:51;11.05;;;4.07;;
62523;SDS011;53689;56.878;60.672;2023-07-24T07:23:20;9.82;;;4.47;;
62523;SDS011;53689;56.878;60.672;2023-07-24T07:25:48;14.10;;;4.38;;
62523;SDS011;53689;56.878;60.672;2023-07-24T07:28:18;18.02;;;4.60;;
62523;SDS011;53689;56.878;60.672;2023-07-24T07:30:47;7.55;;;3.80;;
62523;SDS011;53689;56.878;60.672;2023-07-24T07:33:15;15.95;;;5.22;;
62523;SDS011;53689;56.878;60.672;2023-07-24T07:35:43;14.30;;;5.50;;
62523;SDS011;53689;56.878;60.672;2023-07-24T07:38:10;16.38;;;3.65;;
62523;SDS011;53689;56.878;60.672;2023-07-24T07:40:38;9.80;;;3.70;;
62523;SDS011;53689;56.878;60.672;2023-07-24T07:43:06;10.75;;;3.95;;
62523;SDS011;53689;56.878;60.672;2023-07-24T07:45:33;12.80;;;4.03;;
62523;SDS011;53689;56.878;60.672;2023-07-24T07:48:03;15.25;;;4.32;;
62523;SDS011;53689;56.878;60.672;2023-07-24T07:50:31;13.95;;;4.25;;
62523;SDS011;53689;56.878;60.672;2023-07-24T07:52:59;11.68;;;3.85;;
62523;SDS011;53689;56.878;60.672;2023-07-24T07:55:26;15.52;;;4.60;;
62523;SDS011;53689;56.878;60.672;2023-07-24T07:57:54;11.50;;;3.58;;
62523;SDS011;53689;56.878;60.672;2023-07-24T08:00:22;12.18;;;4.57;;
62523;SDS011;53689;56.878;60.672;2023-07-24T08:02:49;18.25;;;4.30;;
62523;SDS011;53689;56.878;60.672;2023-07-24T08:05:19;15.80;;;5.10;;
62523;SDS011;53689;56.878;60.672;2023-07-24T08:07:47;13.73;;;5.38;;
62523;SDS011;53689;56.878;60.672;2023-07-24T08:10:15;16.52;;;5.93;;
62523;SDS011;53689;56.878;60.672;2023-07-24T08:12:43;12.35;;;5.05;;
62523;SDS011;53689;56.878;60.672;2023-07-24T08:15:11;12.70;;;4.07;;
62523;SDS011;53689;56.878;60.672;2023-07-24T08:17:39;10.85;;;3.63;;
62523;SDS011;53689;56.878;60.672;2023-07-24T08:20:07;13.93;;;3.90;;
62523;SDS011;53689;56.878;60.672;2023-07-24T08:22:36;14.23;;;4.20;;
62523;SDS011;53689;56.878;60.672;2023-07-24T08:25:06;15.18;;;3.85;;
62523;SDS011;53689;56.878;60.672;2023-07-24T08:27:34;14.07;;;4.15;;
62523;SDS011;53689;56.878;60.672;2023-07-24T08:30:21;14.90;;;4.35;;
62523;SDS011;53689;56.878;60.672;2023-07-24T08:32:49;10.50;;;3.60;;
62523;SDS011;53689;56.878;60.672;2023-07-24T08:35:17;9.05;;;3.65;;
62523;SDS011;53689;56.878;60.672;2023-07-24T08:37:46;10.65;;;3.88;;
62523;SDS011;53689;56.878;60.672;2023-07-24T08:40:15;8.63;;;3.53;;
62523;SDS011;53689;56.878;60.672;2023-07-24T08:42:43;7.70;;;3.45;;
62523;SDS011;53689;56.878;60.672;2023-07-24T08:45:11;14.15;;;3.75;;
62523;SDS011;53689;56.878;60.672;2023-07-24T08:47:41;12.57;;;3.75;;
62523;SDS011;53689;56.878;60.672;2023-07-24T08:50:10;9.20;;;3.78;;
62523;SDS011;53689;56.878;60.672;2023-07-24T08:52:39;11.03;;;4.17;;
62523;SDS011;53689;56.878;60.672;2023-07-24T08:55:09;10.48;;;5.32;;
62523;SDS011;53689;56.878;60.672;2023-07-24T08:57:38;9.88;;;3.70;;
62523;SDS011;53689;56.878;60.672;2023-07-24T09:00:07;11.23;;;3.97;;
62523;SDS011;53689;56.878;60.672;2023-07-24T09:05:05;12.10;;;4.55;;
62523;SDS011;53689;56.878;60.672;2023-07-24T09:07:34;9.07;;;4.13;;
62523;SDS011;53689;56.878;60.672;2023-07-24T09:10:03;12.23;;;3.63;;
62523;SDS011;53689;56.878;60.672;2023-07-24T09:12:33;10.07;;;4.33;;
62523;SDS011;53689;56.878;60.672;2023-07-24T09:15:01;8.98;;;3.90;;
62523;SDS011;53689;56.878;60.672;2023-07-24T09:17:29;11.30;;;3.40;;
62523;SDS011;53689;56.878;60.672;2023-07-24T09:19:57;8.75;;;3.50;;
62523;SDS011;53689;56.878;60.672;2023-07-24T09:22:25;8.13;;;3.55;;
62523;SDS011;53689;56.878;60.672;2023-07-24T09:24:53;12.80;;;4.65;;
62523;SDS011;53689;56.878;60.672;2023-07-24T09:27:24;6.50;;;3.50;;
62523;SDS011;53689;56.878;60.672;2023-07-24T09:29:54;13.73;;;4.50;;
62523;SDS011;53689;56.878;60.672;2023-07-24T09:32:23;17.65;;;4.70;;
62523;SDS011;53689;56.878;60.672;2023-07-24T09:34:52;11.77;;;4.30;;
62523;SDS011;53689;56.878;60.672;2023-07-24T09:37:24;9.27;;;3.75;;
62523;SDS011;53689;56.878;60.672;2023-07-24T09:39:53;13.50;;;5.38;;
62523;SDS011;53689;56.878;60.672;2023-07-24T09:42:30;12.57;;;3.83;;
62523;SDS011;53689;56.878;60.672;2023-07-24T09:45:00;8.70;;;3.75;;
62523;SDS011;53689;56.878;60.672;2023-07-24T09:50:15;11.57;;;5.72;;
62523;SDS011;53689;56.878;60.672;2023-07-24T09:52:43;16.33;;;5.70;;
62523;SDS011;53689;56.878;60.672;2023-07-24T09:55:15;10.85;;;5.00;;
62523;SDS011;53689;56.878;60.672;2023-07-24T09:57:48;7.65;;;3.42;;
62523;SDS011;53689;56.878;60.672;2023-07-24T10:00:20;7.07;;;3.47;;
62523;SDS011;53689;56.878;60.672;2023-07-24T10:02:49;9.43;;;4.07;;
62523;SDS011;53689;56.878;60.672;2023-07-24T10:05:18;9.05;;;4.55;;
62523;SDS011;53689;56.878;60.672;2023-07-24T10:07:45;7.45;;;3.72;;
62523;SDS011;53689;56.878;60.672;2023-07-24T10:10:13;15.73;;;5.25;;
62523;SDS011;53689;56.878;60.672;2023-07-24T10:12:42;12.05;;;5.90;;
62523;SDS011;53689;56.878;60.672;2023-07-24T10:15:10;11.20;;;4.10;;
62523;SDS011;53689;56.878;60.672;2023-07-24T10:17:40;25.70;;;6.13;;
62523;SDS011;53689;56.878;60.672;2023-07-24T10:20:09;34.45;;;7.32;;
62523;SDS011;53689;56.878;60.672;2023-07-24T10:25:09;81.95;;;13.00;;
62523;SDS011;53689;56.878;60.672;2023-07-24T10:27:39;131.20;;;21.83;;
62523;SDS011;53689;56.878;60.672;2023-07-24T10:30:09;136.27;;;19.88;;
62523;SDS011;53689;56.878;60.672;2023-07-24T10:33:04;45.63;;;8.70;;
62523;SDS011;53689;56.878;60.672;2023-07-24T10:35:36;73.53;;;11.97;;
62523;SDS011;53689;56.878;60.672;2023-07-24T10:38:08;42.58;;;7.60;;
62523;SDS011;53689;56.878;60.672;2023-07-24T10:40:36;102.13;;;14.18;;
62523;SDS011;53689;56.878;60.672;2023-07-24T10:43:04;79.22;;;14.82;;
62523;SDS011;53689;56.878;60.672;2023-07-24T10:45:39;54.40;;;10.10;;
62523;SDS011;53689;56.878;60.672;2023-07-24T10:48:15;44.00;;;8.70;;
62523;SDS011;53689;56.878;60.672;2023-07-24T10:50:45;44.90;;;7.63;;
62523;SDS011;53689;56.878;60.672;2023-07-24T10:53:19;68.75;;;13.35;;
62523;SDS011;53689;56.878;60.672;2023-07-24T10:55:50;51.47;;;8.65;;
62523;SDS011;53689;56.878;60.672;2023-07-24T10:58:19;46.75;;;9.00;;
62523;SDS011;53689;56.878;60.672;2023-07-24T11:00:52;58.10;;;9.32;;
62523;SDS011;53689;56.878;60.672;2023-07-24T11:03:22;35.88;;;6.97;;
62523;SDS011;53689;56.878;60.672;2023-07-24T11:05:50;35.17;;;7.15;;
62523;SDS011;53689;56.878;60.672;2023-07-24T11:08:19;31.60;;;7.90;;
62523;SDS011;53689;56.878;60.672;2023-07-24T11:10:47;27.60;;;6.70;;
62523;SDS011;53689;56.878;60.672;2023-07-24T11:13:16;34.53;;;7.17;;
62523;SDS011;53689;56.878;60.672;2023-07-24T11:15:44;35.65;;;8.65;;
62523;SDS011;53689;56.878;60.672;2023-07-24T11:18:13;61.75;;;12.00;;
62523;SDS011;53689;56.878;60.672;2023-07-24T11:20:45;63.40;;;11.68;;
62523;SDS011;53689;56.878;60.672;2023-07-24T11:23:14;34.10;;;7.70;;
62523;SDS011;53689;56.878;60.672;2023-07-24T11:25:44;44.50;;;9.40;;
62523;SDS011;53689;56.878;60.672;2023-07-24T11:28:13;57.67;;;11.07;;
62523;SDS011;53689;56.878;60.672;2023-07-24T11:30:41;39.85;;;8.15;;
62523;SDS011;53689;56.878;60.672;2023-07-24T11:33:10;27.40;;;6.35;;
62523;SDS011;53689;56.878;60.672;2023-07-24T11:35:45;21.02;;;5.68;;
62523;SDS011;53689;56.878;60.672;2023-07-24T11:38:14;22.85;;;5.90;;
62523;SDS011;53689;56.878;60.672;2023-07-24T11:40:43;30.58;;;8.95;;
62523;SDS011;53689;56.878;60.672;2023-07-24T11:43:15;21.02;;;7.82;;
62523;SDS011;53689;56.878;60.672;2023-07-24T11:45:43;20.95;;;6.30;;
62523;SDS011;53689;56.878;60.672;2023-07-24T11:48:11;17.73;;;5.63;;
62523;SDS011;53689;56.878;60.672;2023-07-24T11:50:43;15.98;;;4.95;;
62523;SDS011;53689;56.878;60.672;2023-07-24T11:53:19;21.77;;;8.85;;
62523;SDS011;53689;56.878;60.672;2023-07-24T11:55:48;24.98;;;9.98;;
62523;SDS011;53689;56.878;60.672;2023-07-24T11:58:16;19.75;;;7.38;;
62523;SDS011;53689;56.878;60.672;2023-07-24T12:00:45;23.67;;;6.72;;
62523;SDS011;53689;56.878;60.672;2023-07-24T12:03:13;10.38;;;4.63;;
62523;SDS011;53689;56.878;60.672;2023-07-24T12:05:42;32.17;;;8.57;;
62523;SDS011;53689;56.878;60.672;2023-07-24T12:08:16;33.97;;;9.50;;
62523;SDS011;53689;56.878;60.672;2023-07-24T12:10:44;26.02;;;9.00;;
62523;SDS011;53689;56.878;60.672;2023-07-24T12:13:11;26.92;;;7.88;;
62523;SDS011;53689;56.878;60.672;2023-07-24T12:15:39;15.93;;;4.80;;
62523;SDS011;53689;56.878;60.672;2023-07-24T12:18:07;18.27;;;6.47;;
62523;SDS011;53689;56.878;60.672;2023-07-24T12:20:35;25.13;;;7.70;;
62523;SDS011;53689;56.878;60.672;2023-07-24T12:23:05;33.20;;;9.35;;
62523;SDS011;53689;56.878;60.672;2023-07-24T12:25:33;29.55;;;9.80;;
62523;SDS011;53689;56.878;60.672;2023-07-24T12:28:01;25.58;;;9.20;;
62523;SDS011;53689;56.878;60.672;2023-07-24T12:30:29;16.95;;;6.18;;
62523;SDS011;53689;56.878;60.672;2023-07-24T12:32:58;20.85;;;8.40;;
62523;SDS011;53689;56.878;60.672;2023-07-24T12:35:26;47.30;;;11.27;;
62523;SDS011;53689;56.878;60.672;2023-07-24T12:37:54;22.80;;;7.70;;
62523;SDS011;53689;56.878;60.672;2023-07-24T12:40:23;25.60;;;8.50;;
62523;SDS011;53689;56.878;60.672;2023-07-24T12:42:52;22.35;;;6.97;;
62523;SDS011;53689;56.878;60.672;2023-07-24T12:45:21;15.63;;;6.28;;
62523;SDS011;53689;56.878;60.672;2023-07-24T12:47:49;25.90;;;9.68;;
62523;SDS011;53689;56.878;60.672;2023-07-24T12:50:18;24.00;;;8.50;;
62523;SDS011;53689;56.878;60.672;2023-07-24T12:52:47;48.22;;;14.45;;
62523;SDS011;53689;56.878;60.672;2023-07-24T12:55:16;35.65;;;13.18;;
62523;SDS011;53689;56.878;60.672;2023-07-24T12:57:45;33.40;;;12.60;;
62523;SDS011;53689;56.878;60.672;2023-07-24T13:00:13;32.92;;;11.18;;
62523;SDS011;53689;56.878;60.672;2023-07-24T13:02:41;18.45;;;7.65;;
62523;SDS011;53689;56.878;60.672;2023-07-24T13:05:09;24.25;;;7.85;;
62523;SDS011;53689;56.878;60.672;2023-07-24T13:07:37;23.20;;;7.28;;
62523;SDS011;53689;56.878;60.672;2023-07-24T13:10:05;22.30;;;6.50;;
62523;SDS011;53689;56.878;60.672;2023-07-24T13:12:34;19.50;;;6.85;;
62523;SDS011;53689;56.878;60.672;2023-07-24T13:15:04;24.35;;;9.20;;
62523;SDS011;53689;56.878;60.672;2023-07-24T13:17:32;33.72;;;10.82;;
62523;SDS011;53689;56.878;60.672;2023-07-24T13:20:00;20.33;;;7.32;;
62523;SDS011;53689;56.878;60.672;2023-07-24T13:22:28;17.30;;;6.60;;
62523;SDS011;53689;56.878;60.672;2023-07-24T13:24:55;23.38;;;7.00;;
62523;SDS011;53689;56.878;60.672;2023-07-24T13:27:23;17.45;;;6.13;;
62523;SDS011;53689;56.878;60.672;2023-07-24T13:29:51;24.98;;;7.85;;
62523;SDS011;53689;56.878;60.672;2023-07-24T13:32:21;15.07;;;5.80;;
62523;SDS011;53689;56.878;60.672;2023-07-24T13:34:49;16.48;;;5.80;;
62523;SDS011;53689;56.878;60.672;2023-07-24T13:37:16;19.58;;;7.32;;
62523;SDS011;53689;56.878;60.672;2023-07-24T13:39:44;12.77;;;5.07;;
62523;SDS011;53689;56.878;60.672;2023-07-24T13:42:12;15.88;;;6.50;;
62523;SDS011;53689;56.878;60.672;2023-07-24T13:44:39;19.13;;;5.70;;
62523;SDS011;53689;56.878;60.672;2023-07-24T13:47:10;13.48;;;5.18;;
62523;SDS011;53689;56.878;60.672;2023-07-24T13:49:39;13.32;;;5.57;;
62523;SDS011;53689;56.878;60.672;2023-07-24T13:52:07;16.88;;;6.13;;
62523;SDS011;53689;56.878;60.672;2023-07-24T13:54:35;18.83;;;6.82;;
62523;SDS011;53689;56.878;60.672;2023-07-24T13:57:03;26.92;;;12.85;;
62523;SDS011;53689;56.878;60.672;2023-07-24T13:59:31;26.10;;;12.68;;
62523;SDS011;53689;56.878;60.672;2023-07-24T14:02:00;29.27;;;15.65;;
62523;SDS011;53689;56.878;60.672;2023-07-24T14:06:58;22.90;;;10.10;;
62523;SDS011;53689;56.878;60.672;2023-07-24T14:09:27;24.27;;;13.25;;
62523;SDS011;53689;56.878;60.672;2023-07-24T14:11:56;21.48;;;8.60;;
62523;SDS011;53689;56.878;60.672;2023-07-24T14:14:24;19.17;;;7.82;;
62523;SDS011;53689;56.878;60.672;2023-07-24T14:16:53;15.90;;;6.95;;
62523;SDS011;53689;56.878;60.672;2023-07-24T14:19:20;16.98;;;6.20;;
62523;SDS011;53689;56.878;60.672;2023-07-24T14:21:48;16.55;;;5.97;;
62523;SDS011;53689;56.878;60.672;2023-07-24T14:24:18;17.20;;;7.03;;
62523;SDS011;53689;56.878;60.672;2023-07-24T14:26:46;14.05;;;5.82;;
62523;SDS011;53689;56.878;60.672;2023-07-24T14:29:14;15.60;;;6.13;;
62523;SDS011;53689;56.878;60.672;2023-07-24T14:31:42;16.88;;;5.95;;
62523;SDS011;53689;56.878;60.672;2023-07-24T14:34:09;16.55;;;6.43;;
62523;SDS011;53689;56.878;60.672;2023-07-24T14:36:37;15.32;;;5.45;;
62523;SDS011;53689;56.878;60.672;2023-07-24T14:39:05;14.68;;;6.25;;
62523;SDS011;53689;56.878;60.672;2023-07-24T14:41:34;16.63;;;5.50;;
62523;SDS011;53689;56.878;60.672;2023-07-24T14:44:02;20.15;;;6.60;;